Time;durP1;ratioP1;P1;durP2;ratioP2;P2;SDS_P1;SDS_P2;PMS_P1;PMS_P2;Temp;Humidity;BMP_temperature;BMP_pressure;BME280_temperature;BME280_humidity;BME280_pressure;Samples;Min_cycle;Max_cycle;Signal;HPM_P1;HPM_P2
2021/11/28 00:00:14;;;;;;;;;2.50;1.75;;;;;;;;5013870;28;45421;-72
2021/11/28 00:02:39;;;;;;;;;3.00;3.00;;;;;;;;5003759;28;45401;-72
2021/11/28 00:05:05;;;;;;;;;2.33;2.33;;;;;;;;5006943;28;45310;-72
2021/11/28 00:07:48;;;;;;;;;5.00;2.00;;;;;;;;5003893;28;45727;-72
2021/11/28 00:10:29;;;;;;;;;0.75;0.00;;;;;;;;5014963;28;45433;-72
2021/11/28 00:13:07;;;;;;;;;1.25;1.25;;;;;;;;5002664;28;45384;-72
2021/11/28 00:15:32;;;;;;;;;5.00;2.00;;;;;;;;4999778;28;45369;-72
2021/11/28 00:17:57;;;;;;;;;1.33;1.00;;;;;;;;4999252;28;45439;-72
2021/11/28 00:20:23;;;;;;;;;5.67;1.00;;;;;;;;5003501;28;45350;-72
2021/11/28 00:22:48;;;;;;;;;0.75;0.75;;;;;;;;5003721;28;45384;-72
2021/11/28 00:25:15;;;;;;;;;3.25;1.00;;;;;;;;4984556;28;45412;-72
2021/11/28 00:27:41;;;;;;;;;1.00;1.00;;;;;;;;5001068;28;45359;-72
2021/11/28 00:30:08;;;;;;;;;1.00;1.00;;;;;;;;4999994;28;45288;-72
2021/11/28 00:32:33;;;;;;;;;0.75;0.75;;;;;;;;5003747;28;45369;-72
2021/11/28 00:34:58;;;;;;;;;2.67;1.00;;;;;;;;5007967;28;45481;-72
2021/11/28 00:37:23;;;;;;;;;3.67;1.00;;;;;;;;5010245;28;45274;-72
2021/11/28 00:39:49;;;;;;;;;1.00;1.00;;;;;;;;5012275;28;45575;-72
2021/11/28 00:42:14;;;;;;;;;2.00;1.00;;;;;;;;5012971;28;45351;-72
2021/11/28 00:44:40;;;;;;;;;2.75;2.00;;;;;;;;5003263;28;45333;-72
2021/11/28 00:47:05;;;;;;;;;5.00;0.75;;;;;;;;5004147;28;45579;-72
2021/11/28 00:49:33;;;;;;;;;1.50;1.00;;;;;;;;5003696;28;45473;-72
2021/11/28 00:51:58;;;;;;;;;1.75;1.75;;;;;;;;5000696;28;46152;-72
2021/11/28 00:54:24;;;;;;;;;1.67;1.00;;;;;;;;5014030;28;45507;-72
2021/11/28 00:56:50;;;;;;;;;5.75;2.00;;;;;;;;5000436;28;45396;-72
2021/11/28 00:59:15;;;;;;;;;1.00;1.00;;;;;;;;5004055;28;45290;-72
2021/11/28 01:01:41;;;;;;;;;1.00;1.00;;;;;;;;4987279;28;46601;-72
2021/11/28 01:04:06;;;;;;;;;2.50;1.00;;;;;;;;5002198;28;45478;-72
2021/11/28 01:06:32;;;;;;;;;1.00;1.00;;;;;;;;5010587;28;45312;-72
2021/11/28 01:08:57;;;;;;;;;2.00;1.00;;;;;;;;5003969;28;45353;-72
2021/11/28 01:11:23;;;;;;;;;0.00;0.00;;;;;;;;5000560;28;48124;-72
2021/11/28 01:13:48;;;;;;;;;2.50;2.00;;;;;;;;5002640;28;45490;-72
2021/11/28 01:16:14;;;;;;;;;1.00;1.00;;;;;;;;5003726;28;45466;-72
2021/11/28 01:18:39;;;;;;;;;0.00;0.00;;;;;;;;4999372;28;45377;-72
2021/11/28 01:21:04;;;;;;;;;1.00;1.00;;;;;;;;4998383;28;46497;-72
2021/11/28 01:23:29;;;;;;;;;1.00;1.00;;;;;;;;5003368;28;45430;-72
2021/11/28 01:25:54;;;;;;;;;3.00;1.00;;;;;;;;5008199;28;47484;-72
2021/11/28 01:28:20;;;;;;;;;3.33;1.00;;;;;;;;5013297;28;45504;-72
2021/11/28 01:30:45;;;;;;;;;2.33;0.67;;;;;;;;5000147;28;45478;-72
2021/11/28 01:33:10;;;;;;;;;4.33;1.67;;;;;;;;4998593;28;45384;-72
2021/11/28 01:35:35;;;;;;;;;0.00;0.00;;;;;;;;5009868;28;45708;-72
2021/11/28 01:38:02;;;;;;;;;1.00;1.00;;;;;;;;4993183;28;45372;-72
2021/11/28 01:40:27;;;;;;;;;0.00;0.00;;;;;;;;4990914;28;47141;-72
2021/11/28 01:42:53;;;;;;;;;1.00;1.00;;;;;;;;4998812;28;45484;-72
2021/11/28 01:45:21;;;;;;;;;1.25;1.25;;;;;;;;4998595;28;45363;-72
2021/11/28 01:47:46;;;;;;;;;1.25;1.00;;;;;;;;5000013;28;45302;-72
2021/11/28 01:50:12;;;;;;;;;2.00;1.00;;;;;;;;5006874;28;46198;-72
2021/11/28 01:52:37;;;;;;;;;1.50;1.00;;;;;;;;5010188;28;45645;-72
2021/11/28 01:55:11;;;;;;;;;1.75;1.00;;;;;;;;5002637;28;45752;-72
2021/11/28 01:57:37;;;;;;;;;1.50;1.50;;;;;;;;4996534;28;45445;-72
2021/11/28 02:00:09;;;;;;;;;3.00;2.00;;;;;;;;5006919;28;45884;-72
2021/11/28 02:02:34;;;;;;;;;0.25;0.25;;;;;;;;5002579;28;45831;-72
2021/11/28 02:05:00;;;;;;;;;0.25;0.25;;;;;;;;5001940;28;45486;-72
2021/11/28 02:07:25;;;;;;;;;1.00;0.00;;;;;;;;5003083;28;45361;-72
2021/11/28 02:09:51;;;;;;;;;0.00;0.00;;;;;;;;5000272;28;46204;-72
2021/11/28 02:12:16;;;;;;;;;0.00;0.00;;;;;;;;5013835;28;45360;-72
2021/11/28 02:14:41;;;;;;;;;1.00;1.00;;;;;;;;5001547;28;45357;-72
2021/11/28 02:17:07;;;;;;;;;1.67;1.00;;;;;;;;5010363;28;45344;-72
2021/11/28 02:19:32;;;;;;;;;2.00;0.00;;;;;;;;5010596;28;45233;-72
2021/11/28 02:21:57;;;;;;;;;1.00;1.00;;;;;;;;5001520;28;45252;-72
2021/11/28 02:24:22;;;;;;;;;2.33;0.67;;;;;;;;4998165;28;45605;-72
2021/11/28 02:26:47;;;;;;;;;1.00;1.00;;;;;;;;5000982;28;45311;-72
2021/11/28 02:29:13;;;;;;;;;2.00;0.00;;;;;;;;5005824;28;46308;-72
2021/11/28 02:31:38;;;;;;;;;5.33;1.00;;;;;;;;5002624;28;45826;-72
2021/11/28 02:34:03;;;;;;;;;0.00;0.00;;;;;;;;4999352;28;45415;-72
2021/11/28 02:36:28;;;;;;;;;2.25;0.50;;;;;;;;5009000;28;45213;-72
2021/11/28 02:38:54;;;;;;;;;2.00;1.00;;;;;;;;4999832;28;45428;-72
2021/11/28 02:41:19;;;;;;;;;1.00;1.00;;;;;;;;5002104;28;45280;-72
2021/11/28 02:43:44;;;;;;;;;0.00;0.00;;;;;;;;5002213;28;45380;-72
2021/11/28 02:46:10;;;;;;;;;3.33;0.00;;;;;;;;5002407;28;45285;-72
2021/11/28 02:48:35;;;;;;;;;1.50;0.00;;;;;;;;4997879;28;45317;-72
2021/11/28 02:51:01;;;;;;;;;0.50;0.50;;;;;;;;4999663;28;45518;-72
2021/11/28 02:53:27;;;;;;;;;1.00;1.00;;;;;;;;5009138;28;45516;-72
2021/11/28 02:55:55;;;;;;;;;0.75;0.00;;;;;;;;5013095;28;45336;-72
2021/11/28 02:58:22;;;;;;;;;0.75;0.50;;;;;;;;5011325;28;46295;-72
2021/11/28 03:00:50;;;;;;;;;1.00;0.00;;;;;;;;4999734;28;45959;-72
2021/11/28 03:03:15;;;;;;;;;1.00;1.00;;;;;;;;5000649;28;45297;-72
2021/11/28 03:05:40;;;;;;;;;0.33;0.00;;;;;;;;5016590;28;45478;-72
2021/11/28 03:08:06;;;;;;;;;0.33;0.33;;;;;;;;5012240;28;45407;-72
2021/11/28 03:10:43;;;;;;;;;2.00;0.33;;;;;;;;5013547;28;46016;-72
2021/11/28 03:13:28;;;;;;;;;1.00;1.00;;;;;;;;5006090;28;45801;-72
2021/11/28 03:15:55;;;;;;;;;2.00;0.25;;;;;;;;5016586;28;45505;-72
2021/11/28 03:18:23;;;;;;;;;3.25;1.50;;;;;;;;5000679;28;46081;-72
2021/11/28 03:20:51;;;;;;;;;0.75;0.75;;;;;;;;5003644;28;45241;-72
2021/11/28 03:23:16;;;;;;;;;0.75;0.75;;;;;;;;5005689;28;45478;-72
2021/11/28 03:25:42;;;;;;;;;3.00;1.50;;;;;;;;4989606;28;45404;-72
2021/11/28 03:28:18;;;;;;;;;2.00;1.00;;;;;;;;5004531;28;45780;-72
2021/11/28 03:30:45;;;;;;;;;1.75;0.75;;;;;;;;5000702;28;45833;-72
2021/11/28 03:33:10;;;;;;;;;1.00;1.00;;;;;;;;5014135;28;45356;-72
2021/11/28 03:35:36;;;;;;;;;2.00;1.00;;;;;;;;5004328;28;45590;-72
2021/11/28 03:38:01;;;;;;;;;0.50;0.00;;;;;;;;5002654;28;46447;-72
2021/11/28 03:40:27;;;;;;;;;0.00;0.00;;;;;;;;5008857;28;45518;-72
2021/11/28 03:42:52;;;;;;;;;0.50;0.50;;;;;;;;5002995;28;45369;-72
2021/11/28 03:45:18;;;;;;;;;1.00;1.00;;;;;;;;5000569;28;45375;-72
2021/11/28 03:47:44;;;;;;;;;1.00;1.00;;;;;;;;5012211;28;46183;-72
2021/11/28 03:50:10;;;;;;;;;1.00;1.00;;;;;;;;5007219;28;45608;-72
2021/11/28 03:52:35;;;;;;;;;1.00;1.00;;;;;;;;5005209;28;45409;-72
2021/11/28 03:55:00;;;;;;;;;0.50;0.50;;;;;;;;5002716;28;47256;-72
2021/11/28 03:57:26;;;;;;;;;0.25;0.25;;;;;;;;4999682;28;45487;-72
2021/11/28 03:59:51;;;;;;;;;0.00;0.00;;;;;;;;5001367;28;45594;-72
2021/11/28 04:02:18;;;;;;;;;1.25;1.00;;;;;;;;5005154;28;45474;-72
2021/11/28 04:04:43;;;;;;;;;0.25;0.25;;;;;;;;5004151;28;45575;-72
2021/11/28 04:07:08;;;;;;;;;4.33;1.00;;;;;;;;5015047;28;46265;-72
2021/11/28 04:09:33;;;;;;;;;1.00;0.33;;;;;;;;5012906;28;45319;-72
2021/11/28 04:11:59;;;;;;;;;0.00;0.00;;;;;;;;4996388;28;45385;-72
2021/11/28 04:14:24;;;;;;;;;0.50;0.50;;;;;;;;5004869;28;45391;-72
2021/11/28 04:16:49;;;;;;;;;1.00;1.00;;;;;;;;5004448;28;46590;-72
2021/11/28 04:19:14;;;;;;;;;2.33;0.00;;;;;;;;5004692;28;45316;-72
2021/11/28 04:21:43;;;;;;;;;2.00;2.00;;;;;;;;5000252;28;45576;-72
2021/11/28 04:24:08;;;;;;;;;0.50;0.50;;;;;;;;5016340;28;45450;-72
2021/11/28 04:26:34;;;;;;;;;3.00;2.33;;;;;;;;5004208;28;45452;-72
2021/11/28 04:29:00;;;;;;;;;1.00;1.00;;;;;;;;5004482;28;45375;-72
2021/11/28 04:31:25;;;;;;;;;0.75;0.75;;;;;;;;5004339;28;45467;-72
2021/11/28 04:33:50;;;;;;;;;2.67;0.67;;;;;;;;5002276;28;45444;-72
2021/11/28 04:36:16;;;;;;;;;0.67;0.67;;;;;;;;5007429;28;46079;-72
2021/11/28 04:38:41;;;;;;;;;1.67;0.00;;;;;;;;5011222;28;45562;-72
2021/11/28 04:41:06;;;;;;;;;6.33;1.33;;;;;;;;5004918;28;45610;-72
2021/11/28 04:43:32;;;;;;;;;1.00;0.00;;;;;;;;5006573;28;45484;-72
2021/11/28 04:45:57;;;;;;;;;2.00;1.00;;;;;;;;5001439;28;45484;-72
2021/11/28 04:48:22;;;;;;;;;0.00;0.00;;;;;;;;4997514;28;45555;-72
2021/11/28 04:50:47;;;;;;;;;0.00;0.00;;;;;;;;5002553;28;45451;-72
2021/11/28 04:53:12;;;;;;;;;0.67;0.00;;;;;;;;4999866;28;47943;-72
2021/11/28 04:55:38;;;;;;;;;2.00;1.00;;;;;;;;5002351;28;45698;-72
2021/11/28 04:58:03;;;;;;;;;0.00;0.00;;;;;;;;5015406;28;45663;-72
2021/11/28 05:00:29;;;;;;;;;0.67;0.67;;;;;;;;4999464;28;45419;-72
2021/11/28 05:02:55;;;;;;;;;1.00;1.00;;;;;;;;5001969;28;45511;-72
2021/11/28 05:05:21;;;;;;;;;1.00;0.00;;;;;;;;5003927;28;45750;-72
2021/11/28 05:07:46;;;;;;;;;1.00;1.00;;;;;;;;5004740;28;45499;-72
2021/11/28 05:10:11;;;;;;;;;0.00;0.00;;;;;;;;5002449;28;45490;-72
2021/11/28 05:12:37;;;;;;;;;2.00;2.00;;;;;;;;5014706;28;45332;-71
2021/11/28 05:15:03;;;;;;;;;0.00;0.00;;;;;;;;5011218;28;46165;-72
2021/11/28 05:17:28;;;;;;;;;1.50;1.50;;;;;;;;4995659;28;45429;-71
2021/11/28 05:19:53;;;;;;;;;2.00;0.67;;;;;;;;5010645;28;45647;-72
2021/11/28 05:22:19;;;;;;;;;1.00;1.00;;;;;;;;5005380;28;45605;-70
2021/11/28 05:24:46;;;;;;;;;2.00;1.00;;;;;;;;5008279;28;45550;-71
2021/11/28 05:27:11;;;;;;;;;1.25;1.00;;;;;;;;5009389;28;45430;-70
2021/11/28 05:29:36;;;;;;;;;5.67;2.00;;;;;;;;5005269;28;46352;-71
2021/11/28 05:32:02;;;;;;;;;2.67;1.00;;;;;;;;5002494;28;45539;-71
2021/11/28 05:34:27;;;;;;;;;2.00;1.00;;;;;;;;5003917;28;46195;-71
2021/11/28 05:36:53;;;;;;;;;1.67;1.00;;;;;;;;5003284;28;45427;-71
2021/11/28 05:39:18;;;;;;;;;3.33;0.00;;;;;;;;4996574;28;45504;-71
2021/11/28 05:41:43;;;;;;;;;1.00;1.00;;;;;;;;4992687;28;45245;-71
2021/11/28 05:44:09;;;;;;;;;0.00;0.00;;;;;;;;5008237;28;46330;-72
2021/11/28 05:46:35;;;;;;;;;0.75;0.75;;;;;;;;5006963;28;45249;-71
2021/11/28 05:49:00;;;;;;;;;4.33;2.00;;;;;;;;4999858;28;45404;-71
2021/11/28 05:51:25;;;;;;;;;5.33;2.00;;;;;;;;5011616;28;45469;-71
2021/11/28 05:53:50;;;;;;;;;1.00;1.00;;;;;;;;5000367;28;46230;-71
2021/11/28 05:56:17;;;;;;;;;3.00;1.33;;;;;;;;5005291;28;45521;-71
2021/11/28 05:58:42;;;;;;;;;2.00;1.00;;;;;;;;5009641;28;45407;-71
2021/11/28 06:01:07;;;;;;;;;4.00;1.25;;;;;;;;4999507;28;45600;-71
2021/11/28 06:03:32;;;;;;;;;1.00;1.00;;;;;;;;5012809;28;46935;-71
2021/11/28 06:05:58;;;;;;;;;1.00;0.00;;;;;;;;4999980;28;45297;-71
2021/11/28 06:08:23;;;;;;;;;0.00;0.00;;;;;;;;5002862;28;45347;-71
2021/11/28 06:10:49;;;;;;;;;2.00;1.00;;;;;;;;4986730;28;45341;-71
2021/11/28 06:13:15;;;;;;;;;1.75;1.00;;;;;;;;4990561;28;47601;-71
2021/11/28 06:15:40;;;;;;;;;4.00;0.00;;;;;;;;5002849;28;45331;-71
2021/11/28 06:18:05;;;;;;;;;0.00;0.00;;;;;;;;5010394;28;45491;-71
2021/11/28 06:20:30;;;;;;;;;1.00;1.00;;;;;;;;5000148;28;45359;-71
2021/11/28 06:22:56;;;;;;;;;1.00;0.00;;;;;;;;5003882;28;46399;-71
2021/11/28 06:25:21;;;;;;;;;0.50;0.50;;;;;;;;5009667;28;45451;-71
2021/11/28 06:27:46;;;;;;;;;1.00;0.00;;;;;;;;5009568;28;45715;-71
2021/11/28 06:30:12;;;;;;;;;1.00;1.00;;;;;;;;4999196;28;45530;-71
2021/11/28 06:32:37;;;;;;;;;3.00;1.00;;;;;;;;5006376;28;46326;-71
2021/11/28 06:35:03;;;;;;;;;1.00;1.00;;;;;;;;5008204;28;45455;-71
2021/11/28 06:37:28;;;;;;;;;1.00;0.00;;;;;;;;5013135;28;45567;-71
2021/11/28 06:39:53;;;;;;;;;2.00;1.00;;;;;;;;5004150;28;45600;-71
2021/11/28 06:42:19;;;;;;;;;1.00;0.00;;;;;;;;5001253;28;46334;-71
2021/11/28 06:44:44;;;;;;;;;1.33;1.33;;;;;;;;5004584;28;45578;-71
2021/11/28 06:47:11;;;;;;;;;0.00;0.00;;;;;;;;5006306;28;45412;-71
2021/11/28 06:49:37;;;;;;;;;1.00;1.00;;;;;;;;5005701;28;45448;-71
2021/11/28 06:52:02;;;;;;;;;1.00;1.00;;;;;;;;5000900;28;45515;-71
2021/11/28 06:54:28;;;;;;;;;1.75;1.00;;;;;;;;5011791;28;45616;-71
2021/11/28 06:56:53;;;;;;;;;1.00;1.00;;;;;;;;5013215;28;45549;-71
2021/11/28 06:59:19;;;;;;;;;1.33;1.00;;;;;;;;5007832;28;45478;-71
2021/11/28 07:01:45;;;;;;;;;3.25;1.00;;;;;;;;5006038;28;45404;-71
2021/11/28 07:04:11;;;;;;;;;1.00;1.00;;;;;;;;5016501;28;45440;-71
2021/11/28 07:06:36;;;;;;;;;1.00;1.00;;;;;;;;5000941;28;45482;-71
2021/11/28 07:09:03;;;;;;;;;1.00;1.00;;;;;;;;5003842;28;45356;-71
2021/11/28 07:11:28;;;;;;;;;0.00;0.00;;;;;;;;5012093;28;46539;-71
2021/11/28 07:13:53;;;;;;;;;0.75;0.25;;;;;;;;5008284;28;45466;-71
2021/11/28 07:16:19;;;;;;;;;1.00;1.00;;;;;;;;5005433;28;45469;-71
2021/11/28 07:18:45;;;;;;;;;2.00;1.00;;;;;;;;5002288;28;45499;-71
2021/11/28 07:21:11;;;;;;;;;0.75;0.50;;;;;;;;5000375;28;46262;-71
2021/11/28 07:23:36;;;;;;;;;4.50;1.00;;;;;;;;5004870;28;45314;-71
2021/11/28 07:26:02;;;;;;;;;3.25;0.00;;;;;;;;5006393;28;45498;-71
2021/11/28 07:28:28;;;;;;;;;0.25;0.00;;;;;;;;5010572;28;45309;-71
2021/11/28 07:30:53;;;;;;;;;1.00;1.00;;;;;;;;5005760;28;45641;-71
2021/11/28 07:33:18;;;;;;;;;0.00;0.00;;;;;;;;5000645;28;45793;-71
2021/11/28 07:35:43;;;;;;;;;0.67;0.67;;;;;;;;5003769;28;45309;-71
2021/11/28 07:38:08;;;;;;;;;1.67;1.00;;;;;;;;5005156;28;45598;-71
2021/11/28 07:40:34;;;;;;;;;1.67;1.00;;;;;;;;5003911;28;46214;-71
2021/11/28 07:42:59;;;;;;;;;1.25;1.25;;;;;;;;5016532;28;45570;-72
2021/11/28 07:45:24;;;;;;;;;1.00;1.00;;;;;;;;5015407;28;45280;-71
2021/11/28 07:47:49;;;;;;;;;1.00;1.00;;;;;;;;5005195;28;45272;-72
2021/11/28 07:50:15;;;;;;;;;1.33;1.33;;;;;;;;5010461;28;45502;-71
2021/11/28 07:52:40;;;;;;;;;1.00;1.00;;;;;;;;5010558;28;45333;-72
2021/11/28 07:55:06;;;;;;;;;4.33;1.67;;;;;;;;5013013;28;45541;-72
2021/11/28 07:57:31;;;;;;;;;0.25;0.00;;;;;;;;5008327;28;45497;-72
2021/11/28 07:59:57;;;;;;;;;1.00;1.00;;;;;;;;5011445;28;46084;-72
2021/11/28 08:02:22;;;;;;;;;0.00;0.00;;;;;;;;5007415;28;45300;-71
2021/11/28 08:04:48;;;;;;;;;0.00;0.00;;;;;;;;5013252;28;45346;-71
2021/11/28 08:07:14;;;;;;;;;0.00;0.00;;;;;;;;5007880;28;45774;-71
2021/11/28 08:09:39;;;;;;;;;0.50;0.00;;;;;;;;5010041;28;45433;-72
2021/11/28 08:12:04;;;;;;;;;0.00;0.00;;;;;;;;5001992;28;45864;-72
2021/11/28 08:14:30;;;;;;;;;1.00;0.00;;;;;;;;5004933;28;45463;-71
2021/11/28 08:16:55;;;;;;;;;0.00;0.00;;;;;;;;5004167;28;45478;-71
2021/11/28 08:19:20;;;;;;;;;1.00;1.00;;;;;;;;5009419;28;46317;-71
2021/11/28 08:21:45;;;;;;;;;0.00;0.00;;;;;;;;5003303;28;45439;-71
2021/11/28 08:24:10;;;;;;;;;0.00;0.00;;;;;;;;5005242;28;45612;-71
2021/11/28 08:26:36;;;;;;;;;0.25;0.25;;;;;;;;5008332;28;45321;-71
2021/11/28 08:29:02;;;;;;;;;0.00;0.00;;;;;;;;5003853;28;46185;-71
2021/11/28 08:31:27;;;;;;;;;2.25;1.00;;;;;;;;5003848;28;45976;-72
2021/11/28 08:33:52;;;;;;;;;2.00;0.33;;;;;;;;4999862;28;45497;-72
2021/11/28 08:36:20;;;;;;;;;0.33;0.00;;;;;;;;5003936;28;45484;-71
2021/11/28 08:38:46;;;;;;;;;2.00;0.00;;;;;;;;5010378;28;47420;-71
2021/11/28 08:41:12;;;;;;;;;1.00;0.00;;;;;;;;5009114;28;45448;-72
2021/11/28 08:43:37;;;;;;;;;0.00;0.00;;;;;;;;5006676;28;45511;-72
2021/11/28 08:46:02;;;;;;;;;0.50;0.50;;;;;;;;5012520;28;45459;-71
2021/11/28 08:48:28;;;;;;;;;1.25;0.25;;;;;;;;4999865;28;45792;-72
2021/11/28 08:50:53;;;;;;;;;0.00;0.00;;;;;;;;4999040;28;45324;-72
2021/11/28 08:53:18;;;;;;;;;1.00;1.00;;;;;;;;5001422;28;45526;-72
2021/11/28 08:55:43;;;;;;;;;1.00;1.00;;;;;;;;5009351;28;45363;-72
2021/11/28 08:58:08;;;;;;;;;0.00;0.00;;;;;;;;5001836;28;45902;-72
2021/11/28 09:00:34;;;;;;;;;1.00;1.00;;;;;;;;5013221;28;45356;-72
2021/11/28 09:02:59;;;;;;;;;1.00;1.00;;;;;;;;5005868;28;45480;-72
2021/11/28 09:05:24;;;;;;;;;1.00;1.00;;;;;;;;4999702;28;45421;-72
2021/11/28 09:07:52;;;;;;;;;1.50;1.00;;;;;;;;5000997;28;45415;-72
2021/11/28 09:10:17;;;;;;;;;2.75;2.00;;;;;;;;5000150;28;45272;-72
2021/11/28 09:12:43;;;;;;;;;2.50;1.25;;;;;;;;5014732;28;47904;-71
2021/11/28 09:15:08;;;;;;;;;0.75;0.75;;;;;;;;5002145;28;45478;-72
2021/11/28 09:17:34;;;;;;;;;1.00;1.00;;;;;;;;5002208;28;45288;-71
2021/11/28 09:20:07;;;;;;;;;1.00;1.00;;;;;;;;5086746;27;45533;-72
2021/11/28 09:25:07;;;;;;;;;1.00;1.00;;;;;;;;5076709;27;45456;-71
2021/11/28 09:27:32;;;;;;;;;1.00;1.00;;;;;;;;5070365;27;45483;-71
2021/11/28 09:29:57;;;;;;;;;2.00;0.67;;;;;;;;5075556;27;45331;-71
2021/11/28 09:32:23;;;;;;;;;1.00;1.00;;;;;;;;5079104;27;45699;-71
2021/11/28 09:34:48;;;;;;;;;4.50;1.00;;;;;;;;5071824;27;45476;-71
2021/11/28 09:37:13;;;;;;;;;0.67;0.67;;;;;;;;5074035;27;45674;-71
2021/11/28 09:39:42;;;;;;;;;1.00;1.00;;;;;;;;5082647;27;45397;-71
2021/11/28 09:42:08;;;;;;;;;2.00;1.25;;;;;;;;5086465;27;45621;-71
2021/11/28 09:44:35;;;;;;;;;5.00;2.00;;;;;;;;5081844;27;45526;-72
2021/11/28 09:47:00;;;;;;;;;2.50;1.25;;;;;;;;5082520;27;45306;-70
2021/11/28 09:49:28;;;;;;;;;3.00;1.50;;;;;;;;5072859;27;46026;-71
2021/11/28 09:51:54;;;;;;;;;4.50;1.00;;;;;;;;5068591;28;45603;-71
2021/11/28 09:54:20;;;;;;;;;5.75;2.00;;;;;;;;5069761;27;45706;-72
2021/11/28 09:56:45;;;;;;;;;4.00;3.25;;;;;;;;5075316;27;45524;-72
2021/11/28 09:59:11;;;;;;;;;3.25;2.00;;;;;;;;5071744;27;47376;-72
2021/11/28 10:01:38;;;;;;;;;3.00;1.75;;;;;;;;5073510;27;45375;-71
2021/11/28 10:04:03;;;;;;;;;2.25;1.00;;;;;;;;5072898;27;45319;-71
2021/11/28 10:06:30;;;;;;;;;2.75;1.25;;;;;;;;5070357;27;45344;-72
2021/11/28 10:08:55;;;;;;;;;1.00;1.00;;;;;;;;5075638;27;46309;-71
2021/11/28 10:11:23;;;;;;;;;2.75;1.00;;;;;;;;5070436;27;45422;-72
2021/11/28 10:13:53;;;;;;;;;2.75;2.75;;;;;;;;5061127;27;45557;-72
2021/11/28 10:16:19;;;;;;;;;3.00;2.00;;;;;;;;5074952;27;45430;-71
2021/11/28 10:18:45;;;;;;;;;2.50;1.00;;;;;;;;5088527;27;45454;-72
2021/11/28 10:21:10;;;;;;;;;2.00;0.50;;;;;;;;5094389;27;45361;-71
2021/11/28 10:23:55;;;;;;;;;1.00;1.00;;;;;;;;5083537;27;45506;-71
2021/11/28 10:26:22;;;;;;;;;2.00;1.00;;;;;;;;5087198;27;45498;-71
2021/11/28 10:29:07;;;;;;;;;1.50;1.50;;;;;;;;5087010;27;45920;-71
2021/11/28 10:31:47;;;;;;;;;2.00;1.00;;;;;;;;5079215;27;45342;-71
2021/11/28 10:34:22;;;;;;;;;1.00;1.00;;;;;;;;5079841;27;45379;-71
2021/11/28 10:36:49;;;;;;;;;2.25;1.00;;;;;;;;5071934;27;45387;-71
2021/11/28 10:39:19;;;;;;;;;3.00;1.75;;;;;;;;5072319;28;45367;-71
2021/11/28 10:41:46;;;;;;;;;2.25;1.50;;;;;;;;5069373;28;45483;-71
2021/11/28 10:44:12;;;;;;;;;2.00;2.00;;;;;;;;5064025;28;45535;-71
2021/11/28 10:46:37;;;;;;;;;1.75;1.75;;;;;;;;5074520;27;45469;-71
2021/11/28 10:49:07;;;;;;;;;1.00;1.00;;;;;;;;5083085;27;46723;-71
2021/11/28 10:51:33;;;;;;;;;1.50;1.50;;;;;;;;5054869;28;45368;-71
2021/11/28 10:53:58;;;;;;;;;3.25;2.25;;;;;;;;5058406;28;45503;-71
2021/11/28 10:56:23;;;;;;;;;2.00;2.00;;;;;;;;5059187;28;45892;-71
2021/11/28 10:58:49;;;;;;;;;2.33;2.00;;;;;;;;5057756;27;45430;-71
2021/11/28 11:01:15;;;;;;;;;2.00;2.00;;;;;;;;5058295;28;45525;-71
2021/11/28 11:03:48;;;;;;;;;3.75;2.50;;;;;;;;5062608;28;45412;-71
2021/11/28 11:06:21;;;;;;;;;5.50;4.00;;;;;;;;5038446;28;45530;-70
2021/11/28 11:08:47;;;;;;;;;4.50;2.75;;;;;;;;5068686;27;46241;-72
2021/11/28 11:11:13;;;;;;;;;6.00;4.75;;;;;;;;5067866;28;45810;-73
2021/11/28 11:13:51;;;;;;;;;4.50;1.00;;;;;;;;5047636;28;45951;-71
2021/11/28 11:16:29;;;;;;;;;2.25;1.00;;;;;;;;5070231;27;45512;-71
2021/11/28 11:18:54;;;;;;;;;2.50;2.00;;;;;;;;5070508;28;46329;-71
2021/11/28 11:21:19;;;;;;;;;3.67;3.00;;;;;;;;5056090;28;45891;-71
2021/11/28 11:23:47;;;;;;;;;1.67;1.67;;;;;;;;5068943;28;45425;-71
2021/11/28 11:26:22;;;;;;;;;1.00;1.00;;;;;;;;5060588;28;45406;-71
2021/11/28 11:29:06;;;;;;;;;2.25;2.25;;;;;;;;5058050;28;45513;-71
2021/11/28 11:31:31;;;;;;;;;4.75;1.50;;;;;;;;5058088;28;45506;-71
2021/11/28 11:33:57;;;;;;;;;3.00;2.00;;;;;;;;5056493;28;45415;-71
2021/11/28 11:36:23;;;;;;;;;2.00;2.00;;;;;;;;5077443;27;45795;-71
2021/11/28 11:38:49;;;;;;;;;3.00;2.00;;;;;;;;5057525;28;46540;-72
2021/11/28 11:41:14;;;;;;;;;6.25;3.00;;;;;;;;5042537;28;45913;-72
2021/11/28 11:43:40;;;;;;;;;4.33;2.00;;;;;;;;5057838;28;45466;-72
2021/11/28 11:46:08;;;;;;;;;4.50;2.00;;;;;;;;5060339;27;45470;-72
2021/11/28 11:48:34;;;;;;;;;3.00;3.00;;;;;;;;5070164;27;45363;-72
2021/11/28 11:51:01;;;;;;;;;5.75;2.75;;;;;;;;5057653;28;45537;-72
2021/11/28 11:53:26;;;;;;;;;4.50;2.25;;;;;;;;5059394;28;45433;-71
2021/11/28 11:55:52;;;;;;;;;2.33;2.00;;;;;;;;5057623;28;45474;-72
2021/11/28 11:58:25;;;;;;;;;2.75;2.00;;;;;;;;5053738;28;46368;-72
2021/11/28 12:01:15;;;;;;;;;8.00;5.00;;;;;;;;5070097;27;46170;-72
2021/11/28 12:03:48;;;;;;;;;3.00;2.50;;;;;;;;5053751;28;45474;-72
2021/11/28 12:06:13;;;;;;;;;4.00;3.25;;;;;;;;5071150;27;45480;-72
2021/11/28 12:09:05;;;;;;;;;5.00;1.00;;;;;;;;5057714;28;46259;-72
2021/11/28 12:11:50;;;;;;;;;0.75;0.75;;;;;;;;5047403;27;45397;-72
2021/11/28 12:14:15;;;;;;;;;2.00;2.00;;;;;;;;5046317;28;45410;-72
2021/11/28 12:16:42;;;;;;;;;1.33;1.33;;;;;;;;5071084;27;45483;-72
2021/11/28 12:19:07;;;;;;;;;1.00;1.00;;;;;;;;5062435;27;45558;-72
2021/11/28 12:21:38;;;;;;;;;3.33;2.67;;;;;;;;5053430;28;45494;-72
2021/11/28 12:24:04;;;;;;;;;3.25;2.50;;;;;;;;5067735;27;45346;-72
2021/11/28 12:26:32;;;;;;;;;1.00;1.00;;;;;;;;5058242;28;45610;-72
2021/11/28 12:29:10;;;;;;;;;4.00;1.75;;;;;;;;5057112;27;45568;-72
2021/11/28 12:31:36;;;;;;;;;2.75;1.75;;;;;;;;5056840;28;45443;-72
2021/11/28 12:34:02;;;;;;;;;6.50;1.00;;;;;;;;5056474;27;45688;-72
2021/11/28 12:36:40;;;;;;;;;4.50;2.75;;;;;;;;5053910;28;48126;-72
2021/11/28 12:39:11;;;;;;;;;2.50;1.50;;;;;;;;5068449;27;45465;-72
2021/11/28 12:41:42;;;;;;;;;3.50;3.00;;;;;;;;5057468;28;45410;-72
2021/11/28 12:44:07;;;;;;;;;6.25;3.00;;;;;;;;5056912;28;45529;-72
2021/11/28 12:46:42;;;;;;;;;2.25;1.50;;;;;;;;5067459;27;45406;-72
2021/11/28 12:49:26;;;;;;;;;1.50;1.00;;;;;;;;5065675;27;46239;-72
2021/11/28 12:51:51;;;;;;;;;2.25;1.00;;;;;;;;5058869;28;45958;-72
2021/11/28 12:54:24;;;;;;;;;2.00;2.00;;;;;;;;5073196;28;45470;-72
2021/11/28 12:57:08;;;;;;;;;2.75;2.00;;;;;;;;5059345;28;45525;-72
2021/11/28 12:59:34;;;;;;;;;1.75;1.75;;;;;;;;5069002;28;45410;-72
2021/11/28 13:02:02;;;;;;;;;3.33;2.00;;;;;;;;5068508;27;45493;-72
2021/11/28 13:04:39;;;;;;;;;2.00;1.00;;;;;;;;5060887;28;45505;-72
2021/11/28 13:07:22;;;;;;;;;4.50;1.00;;;;;;;;5072748;28;45492;-73
2021/11/28 13:09:48;;;;;;;;;2.50;1.00;;;;;;;;5057256;28;46496;-72
2021/11/28 13:12:15;;;;;;;;;2.00;2.00;;;;;;;;5071026;28;45977;-72
2021/11/28 13:14:44;;;;;;;;;1.00;1.00;;;;;;;;5069720;27;45303;-72
2021/11/28 13:17:10;;;;;;;;;2.50;2.50;;;;;;;;5066213;27;45297;-72
2021/11/28 13:19:36;;;;;;;;;2.00;1.75;;;;;;;;5067078;28;45447;-72
2021/11/28 13:22:01;;;;;;;;;2.50;2.00;;;;;;;;5064644;28;45507;-72
2021/11/28 13:24:27;;;;;;;;;0.75;0.75;;;;;;;;5059773;28;45338;-72
2021/11/28 13:26:54;;;;;;;;;1.75;1.75;;;;;;;;5069627;27;45339;-72
2021/11/28 13:29:20;;;;;;;;;5.00;2.00;;;;;;;;5059067;28;46019;-72
2021/11/28 13:31:45;;;;;;;;;2.00;2.00;;;;;;;;5059651;28;45403;-72
2021/11/28 13:34:11;;;;;;;;;3.00;1.00;;;;;;;;5059421;28;45464;-72
2021/11/28 13:36:43;;;;;;;;;2.25;2.25;;;;;;;;5054737;28;45487;-72
2021/11/28 13:39:10;;;;;;;;;4.50;2.00;;;;;;;;5070911;28;45380;-72
2021/11/28 13:41:35;;;;;;;;;3.50;3.00;;;;;;;;5059782;28;45872;-72
2021/11/28 13:44:04;;;;;;;;;1.00;1.00;;;;;;;;5060927;28;45457;-72
2021/11/28 13:46:35;;;;;;;;;2.00;1.00;;;;;;;;5065432;27;45648;-72
2021/11/28 13:49:20;;;;;;;;;0.00;0.00;;;;;;;;5064821;28;46012;-72
2021/11/28 13:51:56;;;;;;;;;5.00;1.00;;;;;;;;5056093;28;45921;-72
2021/11/28 13:54:30;;;;;;;;;1.00;0.00;;;;;;;;5054288;28;45573;-72
2021/11/28 13:57:01;;;;;;;;;2.50;1.25;;;;;;;;5052069;28;45326;-72
2021/11/28 13:59:28;;;;;;;;;1.00;0.75;;;;;;;;5056196;28;45532;-72
2021/11/28 14:02:12;;;;;;;;;2.50;1.00;;;;;;;;5062545;28;45973;-72
2021/11/28 14:04:38;;;;;;;;;1.00;1.00;;;;;;;;5066946;28;45407;-73
2021/11/28 14:07:03;;;;;;;;;2.75;1.00;;;;;;;;5061636;28;45466;-72
2021/11/28 14:09:29;;;;;;;;;0.00;0.00;;;;;;;;5042257;28;47178;-72
2021/11/28 14:11:56;;;;;;;;;1.25;1.00;;;;;;;;5062004;28;45381;-73
2021/11/28 14:14:23;;;;;;;;;1.00;0.75;;;;;;;;5044533;28;45354;-72
2021/11/28 14:16:53;;;;;;;;;3.00;0.25;;;;;;;;5071862;27;45497;-72
2021/11/28 14:19:38;;;;;;;;;1.00;1.00;;;;;;;;5071714;28;45516;-72
2021/11/28 14:22:21;;;;;;;;;3.00;1.00;;;;;;;;5076624;27;45851;-72
2021/11/28 14:24:46;;;;;;;;;1.50;1.50;;;;;;;;5062805;27;45503;-72
2021/11/28 14:27:15;;;;;;;;;1.00;1.00;;;;;;;;5073727;28;45478;-72
2021/11/28 14:29:40;;;;;;;;;0.50;0.00;;;;;;;;5071749;28;46227;-72
2021/11/28 14:32:06;;;;;;;;;0.75;0.50;;;;;;;;5071107;27;45483;-72
2021/11/28 14:34:31;;;;;;;;;1.75;0.75;;;;;;;;5070582;28;45568;-72
2021/11/28 14:36:57;;;;;;;;;1.00;1.00;;;;;;;;5072617;27;45538;-72
2021/11/28 14:39:35;;;;;;;;;1.00;1.00;;;;;;;;5073895;28;45394;-72
2021/11/28 14:42:10;;;;;;;;;1.00;1.00;;;;;;;;5072724;28;45703;-72
2021/11/28 14:44:41;;;;;;;;;1.25;1.25;;;;;;;;5060826;28;45381;-72